Time;durP1;ratioP1;P1;durP2;ratioP2;P2;SDS_P1;SDS_P2;PMS_P1;PMS_P2;Temp;Humidity;BMP_temperature;BMP_pressure;BME280_temperature;BME280_humidity;BME280_pressure;Samples;Min_cycle;Max_cycle;Signal;HPM_P1;HPM_P2
2023/01/17 00:00:31;;;;;;;72.10;38.65;;;4.70;99.90;;;;;;4979414;29;19913;-85
2023/01/17 00:02:57;;;;;;;73.45;35.35;;;4.60;99.90;;;;;;4962596;29;20041;-84
2023/01/17 00:10:57;;;;;;;63.78;33.95;;;4.60;99.90;;;;;;4979930;28;20079;-84
2023/01/17 00:13:22;;;;;;;62.45;32.80;;;4.70;99.90;;;;;;4964297;28;20055;-81
2023/01/17 00:15:48;;;;;;;;;;;4.70;99.90;;;;;;4981492;28;20030;-80
2023/01/17 00:18:14;;;;;;;65.70;34.65;;;4.70;99.90;;;;;;4981074;28;19902;-81
2023/01/17 00:26:01;;;;;;;57.40;29.05;;;4.60;99.90;;;;;;4981058;28;19901;-81
2023/01/17 00:26:26;;;;;;;64.65;34.30;;;4.60;99.90;;;;;;4980820;28;20021;-79
2023/01/17 02:26:10;;;;;;;64.75;35.58;;;4.80;99.90;;;;;;5539740;23;20059;-81
2023/01/17 09:29:17;;;;;;;6.32;3.42;;;5.60;99.90;;;;;;4923085;29;20073;-84
2023/01/17 09:31:46;;;;;;;4.80;2.47;;;5.60;99.90;;;;;;4924329;29;20036;-84
2023/01/17 09:34:13;;;;;;;4.75;1.67;;;5.60;99.90;;;;;;4924448;29;20019;-84
2023/01/17 09:36:39;;;;;;;3.15;1.67;;;5.60;99.90;;;;;;4924251;29;20021;-84
2023/01/17 09:39:07;;;;;;;3.55;1.20;;;5.80;99.90;;;;;;4924353;29;20013;-83
2023/01/17 09:41:48;;;;;;;3.08;1.30;;;5.70;99.90;;;;;;4924465;29;20088;-84
2023/01/17 09:44:41;;;;;;;2.05;1.02;;;5.50;99.90;;;;;;4925102;29;20024;-82
2023/01/17 09:47:29;;;;;;;2.33;0.80;;;5.60;99.90;;;;;;4922841;29;20036;-84
2023/01/17 09:49:59;;;;;;;2.20;1.00;;;5.60;99.90;;;;;;4924245;29;20017;-85
2023/01/17 09:52:29;;;;;;;2.47;0.80;;;5.70;99.90;;;;;;4924896;29;20025;-83
2023/01/17 09:54:55;;;;;;;2.45;0.75;;;5.70;99.90;;;;;;4924931;29;20032;-85
2023/01/17 09:57:39;;;;;;;;;;;5.80;99.90;;;;;;4924614;29;20017;-83
2023/01/17 10:00:17;;;;;;;4.22;0.55;;;5.80;99.90;;;;;;4923969;29;19919;-84
2023/01/17 10:02:49;;;;;;;1.15;0.60;;;5.60;99.90;;;;;;4924817;29;20024;-84
2023/01/17 10:05:39;;;;;;;1.30;0.60;;;5.70;99.90;;;;;;4924864;29;20057;-82
2023/01/17 10:08:40;;;;;;;1.77;0.60;;;5.70;99.90;;;;;;4923891;29;20020;-84
2023/01/17 10:11:18;;;;;;;1.70;0.80;;;5.60;99.90;;;;;;4924516;29;20053;-82
2023/01/17 10:14:20;;;;;;;1.73;0.80;;;5.50;99.90;;;;;;4924316;29;20036;-84
2023/01/17 10:16:48;;;;;;;1.42;0.70;;;5.50;99.90;;;;;;4924542;29;20036;-82
2023/01/17 10:19:18;;;;;;;1.40;0.80;;;5.50;99.90;;;;;;4923901;29;20017;-83
2023/01/17 10:22:06;;;;;;;1.52;0.88;;;5.50;99.90;;;;;;4920683;29;20017;-83
2023/01/17 10:24:48;;;;;;;2.47;1.17;;;5.40;99.90;;;;;;4936465;29;20025;-83
2023/01/17 10:27:32;;;;;;;3.75;1.10;;;5.40;99.90;;;;;;4892072;29;1393518;-84
2023/01/17 10:30:01;;;;;;;2.28;1.10;;;5.30;99.90;;;;;;4914549;29;20025;-85
2023/01/17 10:32:31;;;;;;;2.88;1.50;;;5.40;99.90;;;;;;4921707;29;20060;-83
2023/01/17 10:35:02;;;;;;;2.35;1.10;;;5.60;99.90;;;;;;4937306;29;20056;-83
2023/01/17 10:37:42;;;;;;;2.42;1.10;;;5.40;99.90;;;;;;4921722;29;20013;-83
2023/01/17 10:40:25;;;;;;;2.60;1.35;;;5.40;99.90;;;;;;4906488;29;20029;-84
2023/01/17 10:43:02;;;;;;;1.98;0.85;;;5.50;99.90;;;;;;4906819;29;20037;-79
2023/01/17 10:45:32;;;;;;;3.20;1.00;;;5.50;99.90;;;;;;4906758;29;20037;-82
2023/01/17 10:48:20;;;;;;;2.03;0.90;;;5.80;99.90;;;;;;4906581;29;20024;-80
2023/01/17 10:50:56;;;;;;;3.63;0.90;;;5.90;99.90;;;;;;4906355;29;20089;-80
2023/01/17 10:53:51;;;;;;;3.28;1.17;;;6.00;99.90;;;;;;4906602;29;20010;-80
2023/01/17 10:56:19;;;;;;;2.22;1.08;;;6.10;99.90;;;;;;4921507;29;20017;-78
2023/01/17 10:58:47;;;;;;;2.25;1.10;;;6.20;99.90;;;;;;4937299;29;20017;-79
2023/01/17 11:01:25;;;;;;;2.20;1.00;;;6.20;99.90;;;;;;4921345;29;20020;-79
2023/01/17 11:03:53;;;;;;;2.50;1.08;;;6.50;99.90;;;;;;4921553;29;20029;-80
2023/01/17 11:06:26;;;;;;;2.38;0.90;;;6.60;99.90;;;;;;4906437;29;20113;-79
2023/01/17 11:08:57;;;;;;;1.70;0.77;;;6.60;99.90;;;;;;4920259;29;20021;-80
2023/01/17 11:11:32;;;;;;;1.40;0.60;;;6.60;99.90;;;;;;4906255;29;20089;-79
2023/01/17 11:14:14;;;;;;;2.03;0.90;;;6.60;99.90;;;;;;4921302;29;20017;-80
2023/01/17 11:16:40;;;;;;;2.20;0.70;;;6.50;99.90;;;;;;4905996;29;20025;-80
2023/01/17 11:19:07;;;;;;;;;;;6.60;99.90;;;;;;4906509;29;20042;-80
2023/01/17 11:21:36;;;;;;;1.70;0.70;;;6.80;99.90;;;;;;4905914;29;19903;-79
2023/01/17 11:24:10;;;;;;;4.45;1.55;;;6.60;99.90;;;;;;4920902;29;20024;-79
2023/01/17 11:26:43;;;;;;;1.50;1.10;;;6.90;99.90;;;;;;4905546;29;20021;-80
2023/01/17 11:29:22;;;;;;;1.77;0.80;;;7.00;99.90;;;;;;4920810;29;20052;-79
2023/01/17 11:31:48;;;;;;;2.13;0.90;;;7.20;99.90;;;;;;4936677;29;20036;-79
2023/01/17 11:34:15;;;;;;;;;;;7.40;99.90;;;;;;4906170;29;20013;-80
2023/01/17 11:36:41;;;;;;;1.23;0.60;;;7.50;99.90;;;;;;4905874;29;19895;-79
2023/01/17 11:39:16;;;;;;;;;;;7.40;99.90;;;;;;4906198;29;20143;-79
2023/01/17 11:41:43;;;;;;;1.30;0.70;;;7.40;99.90;;;;;;4936531;29;19934;-80
2023/01/17 11:44:23;;;;;;;1.92;0.50;;;7.40;99.90;;;;;;4905771;29;20013;-79
2023/01/17 11:47:07;;;;;;;1.20;0.63;;;7.40;99.90;;;;;;4905735;29;20021;-79
2023/01/17 11:49:33;;;;;;;0.95;0.45;;;7.40;99.90;;;;;;4905616;29;20017;-78
2023/01/17 11:52:00;;;;;;;;;;;7.30;99.90;;;;;;4920692;29;20035;-83
2023/01/17 11:54:32;;;;;;;2.30;0.98;;;7.40;99.90;;;;;;4905014;29;19930;-82
2023/01/17 11:57:00;;;;;;;2.10;0.73;;;7.30;99.90;;;;;;4905298;29;20018;-81
2023/01/17 11:59:36;;;;;;;1.15;0.52;;;7.10;99.90;;;;;;4905353;29;20021;-82
2023/01/17 12:02:46;;;;;;;1.52;0.80;;;7.20;99.90;;;;;;4905386;29;20013;-80
2023/01/17 12:05:41;;;;;;;1.52;0.70;;;7.20;99.90;;;;;;4905296;29;20025;-81
2023/01/17 12:08:29;;;;;;;1.35;0.52;;;7.20;99.90;;;;;;4936118;29;20100;-80
2023/01/17 12:11:07;;;;;;;1.92;0.80;;;7.10;99.90;;;;;;4905134;29;20025;-79
2023/01/17 12:14:00;;;;;;;3.83;1.63;;;6.90;99.90;;;;;;4905190;29;20017;-79
2023/01/17 12:16:44;;;;;;;3.33;1.38;;;7.00;99.90;;;;;;4920190;29;20021;-80
2023/01/17 12:19:15;;;;;;;4.57;2.03;;;7.00;99.90;;;;;;4904783;29;20017;-82
2023/01/17 17:38:09;;;;;;;19.08;4.05;;;5.60;99.90;;;;;;5239961;23;20082;-85
2023/01/17 17:40:35;;;;;;;5.20;2.28;;;5.60;99.90;;;;;;4963635;29;20028;-85
2023/01/17 17:43:01;;;;;;;4.80;2.20;;;5.60;99.90;;;;;;4963154;29;20036;-85
2023/01/17 17:45:27;;;;;;;7.45;2.30;;;5.60;99.90;;;;;;4963071;29;20064;-84
2023/01/17 17:47:53;;;;;;;;;;;5.60;99.90;;;;;;4963970;29;20051;-84
2023/01/17 17:50:19;;;;;;;4.72;1.77;;;5.70;99.90;;;;;;4963578;29;19974;-83
2023/01/17 17:52:46;;;;;;;;;;;5.60;99.90;;;;;;4964233;29;20040;-84
2023/01/17 17:55:17;;;;;;;2.35;1.08;;;5.60;99.90;;;;;;4963825;29;19970;-84
2023/01/17 17:57:44;;;;;;;5.38;2.17;;;5.60;99.90;;;;;;4962616;29;20035;-85
2023/01/17 18:00:11;;;;;;;3.42;1.13;;;5.60;99.90;;;;;;4963097;29;20095;-83
2023/01/17 18:02:37;;;;;;;3.90;1.30;;;5.60;99.90;;;;;;4963440;29;20114;-84
2023/01/17 18:05:03;;;;;;;;;;;5.60;99.90;;;;;;4963503;29;20140;-85
2023/01/17 18:07:33;;;;;;;3.20;1.23;;;5.50;99.90;;;;;;4962188;29;19915;-83
2023/01/17 18:09:59;;;;;;;2.83;1.58;;;5.70;99.90;;;;;;4962528;29;20028;-84
2023/01/17 18:12:25;;;;;;;;;;;5.40;99.90;;;;;;4962163;29;20028;-84
2023/01/17 18:14:51;;;;;;;4.43;2.30;;;5.40;99.90;;;;;;4961799;29;19976;-84
2023/01/17 18:17:19;;;;;;;4.57;2.03;;;5.30;99.90;;;;;;4962478;29;20028;-84
2023/01/17 18:19:45;;;;;;;6.80;2.47;;;5.30;99.90;;;;;;4945432;29;20031;-84
2023/01/17 18:22:12;;;;;;;3.90;1.92;;;5.40;99.90;;;;;;4961123;29;20032;-82
2023/01/17 18:24:38;;;;;;;5.68;2.45;;;5.40;99.90;;;;;;4961891;29;20027;-81
2023/01/17 18:27:09;;;;;;;5.70;2.17;;;5.30;99.90;;;;;;4960095;29;20048;-82
2023/01/17 18:29:35;;;;;;;6.93;2.35;;;5.30;99.90;;;;;;4961272;29;20020;-83
2023/01/17 18:32:01;;;;;;;5.57;2.05;;;5.30;99.90;;;;;;4959643;29;20028;-81
2023/01/17 18:34:28;;;;;;;4.07;1.95;;;5.20;99.90;;;;;;4959119;29;20019;-80
2023/01/17 18:36:58;;;;;;;5.00;1.98;;;5.20;99.90;;;;;;4958269;29;20055;-81
2023/01/17 18:39:29;;;;;;;5.20;2.92;;;5.20;99.90;;;;;;4959258;29;20034;-81
2023/01/17 18:41:57;;;;;;;5.10;2.65;;;5.20;99.90;;;;;;4958928;29;20028;-81
2023/01/17 18:44:25;;;;;;;7.55;2.85;;;5.20;99.90;;;;;;4959414;29;20028;-82
2023/01/17 18:46:54;;;;;;;4.15;2.00;;;5.10;99.90;;;;;;4960219;29;19996;-81
2023/01/17 18:49:21;;;;;;;7.53;3.13;;;5.00;99.90;;;;;;4960200;29;20031;-81
2023/01/17 18:51:50;;;;;;;5.93;2.42;;;5.10;99.90;;;;;;4958514;29;20099;-81
2023/01/17 18:54:18;;;;;;;3.67;2.25;;;5.00;99.90;;;;;;4960201;29;20014;-82
2023/01/17 18:56:44;;;;;;;4.93;1.63;;;5.10;99.90;;;;;;4960999;29;20059;-82
2023/01/17 18:59:13;;;;;;;15.07;5.18;;;5.10;99.90;;;;;;4960675;29;20034;-83
2023/01/17 19:01:43;;;;;;;20.35;9.10;;;5.10;99.90;;;;;;4944157;29;20031;-83
2023/01/17 19:04:10;;;;;;;3.70;1.40;;;5.10;99.90;;;;;;4960686;29;20028;-82
2023/01/17 19:06:39;;;;;;;6.38;1.77;;;5.00;99.90;;;;;;4960317;29;20024;-83
2023/01/17 19:09:07;;;;;;;2.03;0.77;;;5.20;99.90;;;;;;4959936;29;20051;-82
2023/01/17 19:11:34;;;;;;;9.65;3.10;;;5.10;99.90;;;;;;4959724;29;20022;-83
2023/01/17 19:14:02;;;;;;;2.15;0.60;;;5.10;99.90;;;;;;4960501;29;20024;-83
2023/01/17 19:16:30;;;;;;;4.07;1.45;;;5.10;99.90;;;;;;4960170;29;20019;-82
2023/01/17 19:19:00;;;;;;;5.03;1.80;;;5.10;99.90;;;;;;4960398;29;20043;-80
2023/01/17 19:21:27;;;;;;;13.88;5.55;;;5.10;99.90;;;;;;4958726;29;20036;-81
2023/01/17 19:23:55;;;;;;;3.17;1.00;;;5.20;99.90;;;;;;4956864;29;20023;-80
2023/01/17 19:26:25;;;;;;;14.65;6.15;;;5.30;99.90;;;;;;4952806;29;20044;-79
2023/01/17 19:28:57;;;;;;;8.98;3.10;;;5.20;99.90;;;;;;4951452;29;20027;-79
2023/01/17 19:31:28;;;;;;;3.88;0.85;;;5.30;99.90;;;;;;4947793;29;20035;-79
2023/01/17 19:33:56;;;;;;;2.25;0.50;;;5.40;99.90;;;;;;4951441;29;20082;-79
2023/01/17 19:36:26;;;;;;;2.28;0.73;;;5.30;99.90;;;;;;4954217;29;20100;-80
2023/01/17 19:38:53;;;;;;;1.13;0.50;;;5.30;99.90;;;;;;4953727;29;20050;-80
2023/01/17 19:41:26;;;;;;;3.05;0.77;;;5.50;99.90;;;;;;4950505;29;20088;-80
2023/01/17 19:43:59;;;;;;;2.90;1.00;;;5.40;99.90;;;;;;4951336;29;20055;-80
2023/01/17 19:46:26;;;;;;;4.45;1.85;;;5.40;99.90;;;;;;4951145;29;20090;-79
2023/01/17 19:48:53;;;;;;;1.58;0.70;;;5.50;99.90;;;;;;4945505;29;20011;-79
2023/01/17 19:51:20;;;;;;;2.78;0.63;;;5.50;99.90;;;;;;4947672;29;20130;-79
2023/01/17 19:53:47;;;;;;;3.58;1.58;;;5.70;99.90;;;;;;4949920;29;20027;-79
2023/01/17 19:56:16;;;;;;;3.60;1.30;;;5.80;99.90;;;;;;4949634;29;20027;-79
2023/01/17 19:58:43;;;;;;;7.50;3.17;;;5.80;99.90;;;;;;4945626;29;20058;-79
2023/01/17 20:01:27;;;;;;;4.85;1.17;;;6.00;99.90;;;;;;4944691;29;20031;-79
2023/01/17 20:03:53;;;;;;;12.10;2.40;;;6.00;99.90;;;;;;4952297;29;20032;-80
2023/01/17 20:06:22;;;;;;;4.97;2.00;;;6.00;99.90;;;;;;4957560;29;20071;-81
2023/01/17 20:08:48;;;;;;;2.78;0.90;;;6.10;99.90;;;;;;4949916;29;20031;-79
2023/01/17 20:11:18;;;;;;;4.13;0.70;;;6.10;99.90;;;;;;4948254;29;20044;-79
2023/01/17 20:13:52;;;;;;;2.10;0.95;;;6.10;99.90;;;;;;4947449;29;20032;-79
2023/01/17 20:16:18;;;;;;;3.42;0.60;;;6.10;99.90;;;;;;4929058;29;20036;-79
2023/01/17 20:18:44;;;;;;;;;;;6.10;99.90;;;;;;4943429;29;20027;-78
2023/01/17 20:21:13;;;;;;;4.63;1.13;;;6.20;99.90;;;;;;4941598;29;20519;-79
2023/01/17 20:23:41;;;;;;;2.55;0.60;;;6.20;99.90;;;;;;4945910;29;20023;-79
2023/01/17 20:26:09;;;;;;;2.20;0.50;;;6.20;99.90;;;;;;4943057;29;20030;-78
2023/01/17 20:28:36;;;;;;;2.72;0.70;;;6.20;99.90;;;;;;4946749;29;20011;-79
2023/01/17 20:31:13;;;;;;;1.65;0.47;;;6.20;99.90;;;;;;4944799;29;20035;-79
2023/01/17 20:33:44;;;;;;;1.60;0.60;;;6.30;99.90;;;;;;4943006;29;20035;-79
2023/01/17 20:36:13;;;;;;;1.42;0.47;;;6.30;99.90;;;;;;4944863;29;20032;-78
2023/01/17 20:38:43;;;;;;;2.78;0.50;;;6.30;99.90;;;;;;4944765;29;20058;-79
2023/01/17 20:41:24;;;;;;;1.08;0.30;;;6.30;99.90;;;;;;4943249;29;20058;-78
2023/01/17 20:43:53;;;;;;;0.73;0.40;;;6.30;99.90;;;;;;4943647;29;20039;-79
2023/01/17 20:46:21;;;;;;;1.08;0.38;;;6.40;99.90;;;;;;4944926;29;20031;-80
2023/01/17 20:48:49;;;;;;;1.08;0.38;;;6.40;99.90;;;;;;4928702;29;20028;-79
2023/01/17 20:51:16;;;;;;;2.50;0.80;;;6.40;99.90;;;;;;4948070;29;20046;-79
2023/01/17 20:53:44;;;;;;;1.45;0.60;;;6.40;99.90;;;;;;4943880;29;20032;-79
2023/01/17 20:56:13;;;;;;;1.48;0.57;;;6.40;99.90;;;;;;4945335;29;20458;-79
2023/01/17 20:58:41;;;;;;;0.60;0.30;;;6.40;99.90;;;;;;4950764;29;20030;-80
2023/01/17 21:01:18;;;;;;;1.42;0.68;;;6.40;99.90;;;;;;4954794;29;20032;-80
2023/01/17 21:03:46;;;;;;;3.47;1.00;;;6.40;99.90;;;;;;4956177;29;20031;-81
2023/01/17 21:06:13;;;;;;;5.13;2.08;;;6.50;99.90;;;;;;4959206;29;20019;-81
2023/01/17 21:08:42;;;;;;;2.83;0.75;;;6.50;99.90;;;;;;4958216;29;20020;-81
2023/01/17 21:11:09;;;;;;;1.25;0.52;;;6.50;99.90;;;;;;4957053;29;20028;-81
2023/01/17 21:13:35;;;;;;;1.05;0.52;;;6.60;99.90;;;;;;4957657;29;20031;-81
2023/01/17 21:16:01;;;;;;;;;;;6.60;99.90;;;;;;4958100;29;20023;-82
2023/01/17 21:18:31;;;;;;;2.70;1.23;;;6.60;99.90;;;;;;4957719;29;19890;-81
2023/01/17 21:21:06;;;;;;;2.35;1.25;;;6.60;99.90;;;;;;4958335;29;20251;-81
2023/01/17 21:23:36;;;;;;;3.72;1.70;;;6.60;99.90;;;;;;4957725;29;20023;-81
2023/01/17 21:26:02;;;;;;;2.85;1.73;;;6.60;99.90;;;;;;4957550;29;20042;-82
2023/01/17 21:28:31;;;;;;;3.05;1.73;;;6.70;99.90;;;;;;4957236;29;20080;-81
2023/01/17 21:30:57;;;;;;;3.42;2.10;;;6.80;99.90;;;;;;4957478;29;20012;-81
2023/01/17 21:33:24;;;;;;;;;;;6.80;99.90;;;;;;4956706;29;20035;-80
2023/01/17 21:35:50;;;;;;;4.25;2.33;;;6.80;99.90;;;;;;4957249;29;19922;-80
2023/01/17 21:38:15;;;;;;;;;;;6.90;99.90;;;;;;4957993;29;20060;-81
2023/01/17 21:40:42;;;;;;;3.85;2.55;;;6.80;99.90;;;;;;4952592;29;19911;-81
2023/01/17 21:43:08;;;;;;;5.55;2.85;;;6.90;99.90;;;;;;4958660;29;20042;-80
2023/01/17 21:45:38;;;;;;;6.22;3.67;;;6.90;99.90;;;;;;4957803;29;20024;-80
2023/01/17 21:48:05;;;;;;;5.68;3.50;;;6.90;99.90;;;;;;4958604;29;20058;-81
2023/01/17 21:50:31;;;;;;;7.20;4.35;;;7.00;99.90;;;;;;4957558;29;20059;-81
2023/01/17 21:52:57;;;;;;;8.55;5.00;;;6.90;99.90;;;;;;4959165;29;20043;-80
2023/01/17 22:04:01;;;;;;;13.85;7.28;;;7.10;99.90;;;;;;4953603;29;20027;-79
2023/01/17 22:06:37;;;;;;;5.88;3.30;;;7.10;99.90;;;;;;4961182;29;20032;-80
2023/01/17 22:09:04;;;;;;;8.23;5.00;;;7.10;99.90;;;;;;4960386;29;20000;-81
2023/01/17 22:11:31;;;;;;;9.32;5.25;;;7.10;99.90;;;;;;4961348;29;20040;-81
2023/01/17 22:13:57;;;;;;;7.57;4.20;;;7.10;99.90;;;;;;4957302;29;20031;-80
2023/01/17 22:16:24;;;;;;;8.75;5.05;;;7.20;99.90;;;;;;4957966;29;20024;-80
2023/01/17 22:18:50;;;;;;;9.40;5.65;;;7.10;99.90;;;;;;4957538;29;20527;-80
2023/01/17 22:21:17;;;;;;;;;;;7.10;99.90;;;;;;4960103;29;20028;-80
2023/01/17 22:23:48;;;;;;;7.88;4.78;;;7.20;99.90;;;;;;4956662;29;19907;-79
2023/01/17 22:26:14;;;;;;;8.32;3.88;;;7.30;99.90;;;;;;4954483;29;20497;-80
2023/01/17 22:28:41;;;;;;;9.73;5.22;;;7.30;99.90;;;;;;4956989;28;20042;-80
2023/01/17 22:31:14;;;;;;;8.82;5.00;;;7.20;99.90;;;;;;4957018;29;20024;-80
2023/01/17 22:33:42;;;;;;;11.32;7.00;;;7.30;99.90;;;;;;4960532;29;20113;-80
2023/01/17 22:36:09;;;;;;;8.98;5.80;;;7.20;99.90;;;;;;4953761;29;20564;-79
2023/01/17 22:38:35;;;;;;;11.57;7.18;;;7.20;99.90;;;;;;4958337;29;20052;-78
2023/01/17 22:41:09;;;;;;;10.27;7.03;;;7.20;99.90;;;;;;4953801;29;20020;-79
2023/01/17 22:43:37;;;;;;;11.18;6.43;;;7.30;99.90;;;;;;4959293;29;20055;-80
2023/01/17 22:46:04;;;;;;;10.60;6.65;;;7.40;99.90;;;;;;4960750;29;20079;-80
2023/01/17 22:48:34;;;;;;;11.25;5.75;;;7.40;99.90;;;;;;4958053;29;20039;-81
2023/01/17 22:51:01;;;;;;;12.82;8.63;;;7.40;99.90;;;;;;4961933;29;20020;-80
2023/01/17 22:53:27;;;;;;;12.00;7.00;;;7.30;99.90;;;;;;4961898;29;20028;-80
2023/01/17 22:56:05;;;;;;;16.23;7.22;;;7.30;99.90;;;;;;4961089;29;20033;-81
2023/01/17 22:58:32;;;;;;;13.75;9.88;;;7.40;99.90;;;;;;4960137;29;20023;-82
2023/01/17 23:01:05;;;;;;;7.70;5.53;;;7.30;99.90;;;;;;4961092;29;20028;-80
2023/01/17 23:03:31;;;;;;;9.38;5.95;;;7.40;99.90;;;;;;4961094;29;20042;-80
2023/01/17 23:06:06;;;;;;;10.80;6.00;;;7.60;99.90;;;;;;4960814;29;20078;-81
2023/01/17 23:08:32;;;;;;;9.07;5.40;;;7.60;99.90;;;;;;4960764;29;20035;-80
2023/01/17 23:13:42;;;;;;;9.07;5.70;;;7.60;99.90;;;;;;4961833;29;19902;-80
2023/01/17 23:24:20;;;;;;;15.05;9.27;;;7.70;99.90;;;;;;4961435;29;20031;-80
2023/01/17 23:28:09;;;;;;;;;;;7.60;99.90;;;;;;4960528;29;20012;-80
2023/01/17 23:29:31;;;;;;;16.27;8.77;;;7.70;99.90;;;;;;4960418;29;19902;-80
2023/01/17 23:31:56;;;;;;;;;;;7.80;99.90;;;;;;4959731;29;20039;-80
2023/01/17 23:34:22;;;;;;;20.15;10.18;;;7.80;99.90;;;;;;4959825;29;19901;-79
2023/01/17 23:36:47;;;;;;;;;;;7.80;99.90;;;;;;4960173;29;20043;-80
2023/01/17 23:39:13;;;;;;;13.82;7.97;;;7.80;99.90;;;;;;4960724;29;19923;-80
2023/01/17 23:44:26;;;;;;;16.38;8.77;;;7.90;99.90;;;;;;4960601;29;19901;-80
2023/01/17 23:46:51;;;;;;;16.60;9.05;;;7.90;99.90;;;;;;4961003;29;20003;-79
2023/01/17 23:49:17;;;;;;;;;;;7.90;99.90;;;;;;4960290;29;20043;-80
2023/01/17 23:51:42;;;;;;;14.30;7.65;;;7.90;99.90;;;;;;4959724;29;19910;-80
2023/01/17 23:54:08;;;;;;;;;;;7.90;99.90;;;;;;4957488;29;20051;-79
2023/01/17 23:56:33;;;;;;;16.38;9.15;;;7.80;99.90;;;;;;4959305;29;19895;-79
2023/01/17 23:59:00;;;;;;;;;;;7.80;99.90;;;;;;4958071;29;20231;-80
